createdAt,value
2019-02-07T00:02:38.980Z,64.40
2019-02-07T00:07:41.712Z,64.24
2019-02-07T00:12:44.399Z,64.25
2019-02-07T00:17:47.615Z,64.36
2019-02-07T00:22:50.306Z,64.57
2019-02-07T00:27:53.010Z,64.59
2019-02-07T00:32:55.708Z,64.48
2019-02-07T00:37:58.407Z,64.24
2019-02-07T00:43:01.410Z,63.98
2019-02-07T00:48:04.518Z,63.92
2019-02-07T00:53:07.239Z,64.04
2019-02-07T00:58:09.938Z,64.15
2019-02-07T01:03:12.664Z,64.23
2019-02-07T01:08:15.887Z,64.38
2019-02-07T01:13:18.583Z,64.75
2019-02-07T01:18:21.614Z,65.04
2019-02-07T01:23:24.323Z,65.16
2019-02-07T01:28:27.009Z,65.34
2019-02-07T01:33:29.815Z,65.32
2019-02-07T01:38:32.511Z,65.63
2019-02-07T01:43:35.203Z,65.52
2019-02-07T01:48:37.899Z,65.37
2019-02-07T01:53:40.592Z,65.39
2019-02-07T01:58:43.338Z,65.40
2019-02-07T02:03:46.031Z,65.71
2019-02-07T02:08:48.748Z,65.63
2019-02-07T02:13:51.572Z,65.54
2019-02-07T02:18:54.484Z,65.40
2019-02-07T02:23:57.200Z,65.41
2019-02-07T02:29:04.797Z,65.62
2019-02-07T02:34:07.679Z,65.62
2019-02-07T02:39:10.379Z,65.41
2019-02-07T02:44:13.059Z,65.13
2019-02-07T02:49:15.776Z,64.92
2019-02-07T02:54:32.939Z,64.81
2019-02-07T02:59:35.660Z,64.50
2019-02-07T03:04:56.331Z,64.36
2019-02-07T03:10:24.286Z,64.28
2019-02-07T03:15:50.172Z,64.07
2019-02-07T03:21:11.033Z,64.15
2019-02-07T03:26:36.420Z,63.70
2019-02-07T03:31:57.124Z,62.75
2019-02-07T03:37:11.761Z,62.01
2019-02-07T03:42:43.161Z,61.42
2019-02-07T03:48:17.284Z,60.48
2019-02-07T03:53:39.631Z,59.65
2019-02-07T03:58:51.674Z,59.19
2019-02-07T04:04:09.075Z,59.37
2019-02-07T04:09:29.659Z,59.59
2019-02-07T04:14:50.203Z,60.72
2019-02-07T04:20:13.758Z,62.21
2019-02-07T04:25:34.660Z,63.24
2019-02-07T04:30:50.471Z,63.50
2019-02-07T04:36:07.685Z,64.30
2019-02-07T04:41:41.222Z,65.05
2019-02-07T04:59:50.523Z,65.68
2019-02-07T05:05:50.856Z,64.95
2019-02-07T05:11:16.519Z,64.83
2019-02-07T05:16:51.414Z,64.99
2019-02-07T05:22:10.376Z,65.00
2019-02-07T05:27:31.049Z,64.64
2019-02-07T05:32:45.071Z,64.29
2019-02-07T05:37:56.459Z,63.98
2019-02-07T05:43:19.064Z,64.06
2019-02-07T05:48:47.408Z,63.81
2019-02-07T05:54:12.903Z,64.09
2019-02-07T05:59:45.221Z,63.98
2019-02-07T06:05:13.415Z,63.86
2019-02-07T06:10:50.506Z,63.31
2019-02-07T06:16:11.212Z,62.70
2019-02-07T06:21:26.190Z,62.04
2019-02-07T06:26:48.592Z,61.90
2019-02-07T06:31:58.776Z,61.23
2019-02-07T06:37:19.566Z,61.13
2019-02-07T06:42:29.779Z,61.12
2019-02-07T06:47:44.867Z,60.85
2019-02-07T06:53:06.163Z,60.61
2019-02-07T06:58:34.075Z,60.47
2019-02-07T07:04:03.063Z,60.25
2019-02-07T07:09:26.934Z,60.52
2019-02-07T07:15:00.884Z,60.69
2019-02-07T07:20:30.689Z,60.74
2019-02-07T07:25:48.090Z,60.77
2019-02-07T07:31:08.606Z,60.98
2019-02-07T07:36:22.427Z,61.21
2019-02-07T07:41:43.237Z,61.53
2019-02-07T07:47:03.720Z,61.92
2019-02-07T07:52:24.209Z,62.43
2019-02-07T07:57:39.860Z,62.85
2019-02-07T08:03:17.256Z,63.15
2019-02-07T08:08:38.012Z,63.81
2019-02-07T08:13:58.579Z,63.92
2019-02-07T08:19:19.072Z,63.72
2019-02-07T08:24:50.038Z,63.46
2019-02-07T08:30:10.513Z,63.48
2019-02-07T08:35:32.021Z,63.21
2019-02-07T08:41:06.205Z,63.20
2019-02-07T08:46:37.408Z,63.24
2019-02-07T08:52:09.526Z,63.41
2019-02-07T08:57:31.846Z,63.78
2019-02-07T09:02:51.878Z,64.66
2019-02-07T09:13:43.213Z,67.45
2019-02-07T09:19:11.425Z,69.18
2019-02-07T09:24:32.698Z,70.56
2019-02-07T09:30:12.967Z,71.49
2019-02-07T09:35:32.956Z,72.10
2019-02-07T09:40:50.539Z,72.75
2019-02-07T09:46:12.842Z,73.10
2019-02-07T09:51:33.267Z,73.62
2019-02-07T09:56:55.175Z,74.38
2019-02-07T10:02:12.256Z,74.60
2019-02-07T10:07:34.593Z,75.44
2019-02-07T10:12:56.893Z,75.94
2019-02-07T10:18:19.204Z,76.04
2019-02-07T10:23:53.245Z,75.53
2019-02-07T10:29:24.090Z,74.95
2019-02-07T10:34:44.813Z,74.36
2019-02-07T10:40:07.136Z,74.03
2019-02-07T10:45:33.780Z,73.69
2019-02-07T10:50:58.894Z,73.91
2019-02-07T10:56:16.060Z,74.20
2019-02-07T11:01:43.642Z,74.25
2019-02-07T11:06:56.259Z,73.18
2019-02-07T11:12:33.251Z,73.09
2019-02-07T11:18:04.518Z,72.65
2019-02-07T11:23:44.872Z,71.91
2019-02-07T11:29:05.386Z,71.54
2019-02-07T11:34:21.472Z,71.25
2019-02-07T11:39:46.662Z,71.32
2019-02-07T11:45:07.376Z,71.20
2019-02-07T11:50:29.781Z,70.87
2019-02-07T11:55:59.076Z,70.73
2019-02-07T12:01:26.463Z,69.48
2019-02-07T12:06:51.917Z,69.04
2019-02-07T12:12:17.111Z,69.62
2019-02-07T12:17:45.534Z,69.38
2019-02-07T12:23:05.954Z,69.36
2019-02-07T12:28:28.373Z,68.59
2019-02-07T12:33:50.678Z,67.20
2019-02-07T12:39:15.571Z,65.50
2019-02-07T12:44:52.809Z,65.42
2019-02-07T12:50:13.236Z,64.55
2019-02-07T12:55:26.808Z,64.86
2019-02-07T13:00:51.215Z,62.36
2019-02-07T13:06:05.731Z,62.92
2019-02-07T13:11:33.458Z,62.81
2019-02-07T13:16:45.944Z,63.68
2019-02-07T13:22:10.274Z,63.62
2019-02-07T13:27:24.820Z,62.36
2019-02-07T13:32:46.333Z,60.47
2019-02-07T13:38:26.384Z,59.78
2019-02-07T13:43:47.290Z,59.78
2019-02-07T13:49:15.459Z,59.27
2019-02-07T13:54:33.932Z,59.73
2019-02-07T13:59:48.029Z,58.83
2019-02-07T14:05:12.906Z,58.92
2019-02-07T14:10:44.357Z,58.66
2019-02-07T14:16:24.606Z,59.01
2019-02-07T14:21:45.480Z,59.53
2019-02-07T14:27:07.787Z,59.07
2019-02-07T14:32:30.318Z,58.97
2019-02-07T14:37:55.375Z,58.40
2019-02-07T14:43:10.881Z,57.91
2019-02-07T14:48:23.628Z,58.02
2019-02-07T14:53:26.398Z,58.58
2019-02-07T14:58:29.347Z,57.68
2019-02-07T15:03:32.034Z,57.18
2019-02-07T15:08:34.764Z,57.03
2019-02-07T15:13:37.561Z,57.78
2019-02-07T15:18:40.635Z,57.52
2019-02-07T15:23:43.352Z,57.92
2019-02-07T15:28:46.027Z,57.98
2019-02-07T15:33:48.764Z,57.97
2019-02-07T15:38:51.431Z,58.35
2019-02-07T15:43:54.098Z,58.68
2019-02-07T15:48:57.087Z,59.07
2019-02-07T15:53:59.836Z,59.44
2019-02-07T15:59:14.685Z,59.55
2019-02-07T16:04:20.699Z,59.83
2019-02-07T16:09:23.678Z,59.98
2019-02-07T16:14:26.460Z,59.62
2019-02-07T16:19:30.038Z,59.87
2019-02-07T16:24:32.737Z,59.85
2019-02-07T16:29:35.392Z,60.60
2019-02-07T16:34:38.099Z,61.48
2019-02-07T16:39:40.934Z,61.53
2019-02-07T16:44:43.612Z,61.61
2019-02-07T16:49:46.597Z,61.62
2019-02-07T16:54:50.821Z,61.63
2019-02-07T16:59:53.888Z,61.73
2019-02-07T17:04:56.851Z,61.23
2019-02-07T17:09:59.914Z,60.78
2019-02-07T17:15:04.712Z,60.87
2019-02-07T17:20:15.037Z,61.35
2019-02-07T17:25:18.241Z,61.21
2019-02-07T17:30:21.241Z,60.97
2019-02-07T17:35:24.319Z,61.41
2019-02-07T17:40:27.001Z,61.83
2019-02-07T17:45:29.795Z,62.06
2019-02-07T17:50:32.729Z,62.17
2019-02-07T17:55:35.403Z,61.94
2019-02-07T18:01:01.932Z,61.74
2019-02-07T18:06:06.812Z,61.92
2019-02-07T18:11:09.538Z,62.36
2019-02-07T18:16:12.300Z,61.56
2019-02-07T18:21:14.973Z,61.78
2019-02-07T18:26:17.640Z,61.76
2019-02-07T18:31:20.312Z,62.16
2019-02-07T18:36:23.372Z,61.88
2019-02-07T18:41:26.071Z,62.27
2019-02-07T18:46:28.751Z,62.37
2019-02-07T18:51:31.564Z,62.24
2019-02-07T18:56:34.336Z,62.83
2019-02-07T19:01:37.007Z,62.46
2019-02-07T19:06:39.699Z,62.82
2019-02-07T19:11:42.507Z,63.55
2019-02-07T19:16:45.367Z,64.44
2019-02-07T19:21:56.726Z,65.03
2019-02-07T19:26:52.613Z,65.13
2019-02-07T19:31:55.281Z,64.96
2019-02-07T19:36:57.946Z,65.60
2019-02-07T19:42:00.923Z,65.69
2019-02-07T19:47:03.609Z,66.15
2019-02-07T19:52:08.523Z,66.50
2019-02-07T19:57:11.339Z,66.59
2019-02-07T20:02:14.355Z,66.72
2019-02-07T20:07:17.133Z,66.54
2019-02-07T20:12:19.913Z,66.58
2019-02-07T20:17:22.584Z,66.38
2019-02-07T20:22:25.656Z,67.09
2019-02-07T20:27:28.329Z,66.74
2019-02-07T20:32:31.013Z,66.90
2019-02-07T20:37:33.884Z,67.72
2019-02-07T20:42:36.568Z,68.10
2019-02-07T20:47:39.298Z,68.30
2019-02-07T20:52:42.278Z,68.24
2019-02-07T20:57:45.100Z,67.96
2019-02-07T21:02:47.910Z,67.58
2019-02-07T21:07:50.600Z,67.64
2019-02-07T21:12:53.277Z,67.47
2019-02-07T21:17:56.257Z,67.78
2019-02-07T21:22:59.615Z,67.79
2019-02-07T21:28:02.390Z,67.85
2019-02-07T21:33:05.852Z,66.75
2019-02-07T21:38:08.910Z,66.75
2019-02-07T21:43:11.565Z,66.52
2019-02-07T21:48:14.263Z,66.86
2019-02-07T21:53:16.937Z,67.72
2019-02-07T21:58:19.600Z,67.72
2019-02-07T22:03:22.360Z,68.20
2019-02-07T22:08:25.064Z,68.74
2019-02-07T22:13:28.039Z,69.62
2019-02-07T22:18:30.717Z,69.81
2019-02-07T22:23:33.377Z,69.78
2019-02-07T22:28:36.066Z,69.60
2019-02-07T22:33:38.727Z,71.00
2019-02-07T22:38:41.407Z,72.42
2019-02-07T22:43:44.110Z,75.16
2019-02-07T22:48:46.783Z,75.97
2019-02-07T22:53:49.459Z,76.26
2019-02-07T22:58:52.144Z,76.17
2019-02-07T23:04:04.371Z,76.25
2019-02-07T23:09:10.533Z,76.41
2019-02-07T23:14:13.537Z,76.42
2019-02-07T23:19:16.199Z,76.47
2019-02-07T23:24:18.901Z,76.51
2019-02-07T23:29:21.965Z,76.74
2019-02-07T23:34:24.627Z,76.53
2019-02-07T23:39:27.299Z,76.06
2019-02-07T23:44:30.163Z,76.05
2019-02-07T23:49:32.826Z,76.03
2019-02-07T23:54:35.517Z,75.41
2019-02-07T23:59:38.198Z,75.16
